createdAt,value
2023-03-23T15:57:53.691Z,2.25
2023-03-23T16:00:22.407Z,2.08
2023-03-23T16:02:53.942Z,2.80
2023-03-23T16:05:20.340Z,4.57
2023-03-23T16:07:46.647Z,3.35
2023-03-23T16:10:21.783Z,3.40
2023-03-23T16:12:48.149Z,2.58
2023-03-23T16:15:15.200Z,2.22
2023-03-23T16:17:42.400Z,2.22
2023-03-23T16:22:46.640Z,2.20
2023-03-23T16:25:14.164Z,1.80
2023-03-23T16:27:41.927Z,1.98
2023-03-23T16:30:23.482Z,2.20
2023-03-23T16:32:49.960Z,2.00
2023-03-23T16:35:17.971Z,1.95
2023-03-23T16:37:49.474Z,2.17
2023-03-23T16:40:17.817Z,2.28
2023-03-23T16:42:44.414Z,2.22
2023-03-23T16:45:11.351Z,2.13
2023-03-23T16:47:38.418Z,2.05
2023-03-23T16:50:06.571Z,2.20
2023-03-23T16:52:33.654Z,2.00
2023-03-23T16:54:59.934Z,1.98
2023-03-23T16:57:26.312Z,2.30
2023-03-23T16:59:52.610Z,2.55
2023-03-23T17:02:19.081Z,2.20
2023-03-23T17:04:46.154Z,2.20
2023-03-23T17:07:13.406Z,3.33
2023-03-23T17:12:08.481Z,4.35
2023-03-23T17:14:34.931Z,6.15
2023-03-23T17:17:02.384Z,8.20
2023-03-23T17:19:28.766Z,7.13
2023-03-23T17:21:55.079Z,7.53
2023-03-23T17:24:21.558Z,6.20
2023-03-23T17:26:47.993Z,7.95
2023-03-23T17:29:14.285Z,7.30
2023-03-23T17:31:40.675Z,6.85
2023-03-23T17:34:07.389Z,14.40
2023-03-23T17:36:33.759Z,7.88
2023-03-23T17:39:00.180Z,6.32
2023-03-23T17:41:26.464Z,6.32
2023-03-23T17:43:52.773Z,5.85
2023-03-23T17:46:19.126Z,4.60
2023-03-23T17:48:45.452Z,5.22
2023-03-23T17:51:11.757Z,4.00
2023-03-23T17:53:38.061Z,3.47
2023-03-23T17:56:05.726Z,3.38
2023-03-23T17:58:32.056Z,3.50
2023-03-23T18:00:58.485Z,3.92
2023-03-23T18:03:25.308Z,13.07
2023-03-23T18:05:57.066Z,18.65
2023-03-23T18:08:23.405Z,12.35
2023-03-23T18:10:49.780Z,6.65
2023-03-23T18:13:16.101Z,5.30
2023-03-23T18:15:46.791Z,4.80
2023-03-23T18:18:13.433Z,10.68
2023-03-23T18:20:39.857Z,9.60
2023-03-23T18:23:06.190Z,11.05
2023-03-23T18:25:32.971Z,6.82
2023-03-23T18:28:04.346Z,7.88
2023-03-23T18:30:32.080Z,6.80
2023-03-23T18:32:58.456Z,6.47
2023-03-23T18:35:24.755Z,7.50
2023-03-23T18:37:51.052Z,5.60
2023-03-23T18:40:17.786Z,6.20
2023-03-23T18:42:44.096Z,4.82
2023-03-23T18:45:11.174Z,5.07
2023-03-23T18:47:37.597Z,5.10
2023-03-23T18:50:06.802Z,3.80
2023-03-23T18:52:33.162Z,3.92
2023-03-23T18:55:00.118Z,4.90
2023-03-23T18:57:26.794Z,5.05
2023-03-23T18:59:53.201Z,5.80
2023-03-23T19:02:20.382Z,4.97
2023-03-23T19:04:48.183Z,5.68
2023-03-23T19:07:16.205Z,5.22
2023-03-23T19:09:43.367Z,6.88
2023-03-23T19:12:10.854Z,7.22
2023-03-23T19:14:38.120Z,7.68
2023-03-23T19:17:04.568Z,6.53
2023-03-23T19:19:30.897Z,6.85
2023-03-23T19:21:57.189Z,9.07
2023-03-23T19:24:23.551Z,9.63
2023-03-23T19:26:49.840Z,7.28
2023-03-23T19:31:47.807Z,7.07
2023-03-23T19:34:15.605Z,7.00
2023-03-23T19:36:42.125Z,8.82
2023-03-23T19:39:14.649Z,11.30
2023-03-23T19:41:41.911Z,34.75
2023-03-23T19:46:34.523Z,22.30
2023-03-23T19:49:01.227Z,19.25
2023-03-23T19:51:28.557Z,19.63
2023-03-23T19:53:57.184Z,8.80
2023-03-23T19:56:24.087Z,5.70
2023-03-23T19:58:50.809Z,5.57
2023-03-23T20:01:17.888Z,5.10
2023-03-23T20:03:45.359Z,6.63
2023-03-23T20:06:13.918Z,9.77
2023-03-23T20:08:43.758Z,6.97
2023-03-23T20:11:18.118Z,4.75
2023-03-23T20:13:45.421Z,4.80
2023-03-23T20:16:12.040Z,4.20
2023-03-23T20:18:38.450Z,4.28
2023-03-23T20:21:08.074Z,4.30
2023-03-23T20:23:35.659Z,5.82
2023-03-23T20:26:27.302Z,6.07
2023-03-23T20:28:53.885Z,6.22
2023-03-23T20:31:26.699Z,4.90
2023-03-23T20:33:59.993Z,4.80
2023-03-23T20:36:29.915Z,7.10
2023-03-23T20:38:56.282Z,7.97
2023-03-23T20:41:23.788Z,6.57
2023-03-23T20:43:50.394Z,5.65
2023-03-23T20:46:16.760Z,7.32
2023-03-23T20:48:43.076Z,8.45
2023-03-23T20:51:10.030Z,7.18
2023-03-23T20:53:37.127Z,6.00
2023-03-23T20:56:05.688Z,5.43
2023-03-23T20:58:33.169Z,4.53
2023-03-23T21:01:02.159Z,4.60
2023-03-23T21:03:32.192Z,5.15
2023-03-23T21:05:58.598Z,4.18
2023-03-23T21:08:25.114Z,3.47
2023-03-23T21:10:51.979Z,3.67
2023-03-23T21:13:18.387Z,3.67
2023-03-23T21:15:45.321Z,4.30
2023-03-23T21:18:12.159Z,3.90
2023-03-23T21:20:38.881Z,3.95
2023-03-23T21:23:05.757Z,4.00
2023-03-23T21:25:35.333Z,3.63
2023-03-23T21:28:02.254Z,3.75
2023-03-23T21:30:28.579Z,3.70
2023-03-23T21:32:55.050Z,6.22
2023-03-23T21:35:21.856Z,5.85
2023-03-23T21:37:48.328Z,4.70
2023-03-23T21:40:16.920Z,5.43
2023-03-23T21:42:44.455Z,5.43
2023-03-23T21:45:13.092Z,5.22
2023-03-23T21:47:40.220Z,5.70
2023-03-23T21:50:06.902Z,4.97
2023-03-23T21:52:33.541Z,4.68
2023-03-23T21:55:00.425Z,4.75
2023-03-23T21:57:26.745Z,5.03
2023-03-23T21:59:53.135Z,5.35
2023-03-23T22:02:19.484Z,4.45
2023-03-23T22:04:46.098Z,4.47
2023-03-23T22:07:12.423Z,5.10
2023-03-23T22:09:39.278Z,4.47
2023-03-23T22:12:05.762Z,4.40
2023-03-23T22:14:32.071Z,3.83
2023-03-23T22:16:58.392Z,3.90
2023-03-23T22:19:24.716Z,3.45
2023-03-23T22:21:51.034Z,3.70
2023-03-23T22:24:17.666Z,3.30
2023-03-23T22:26:44.371Z,3.55
2023-03-23T22:29:11.263Z,3.95
2023-03-23T22:31:38.959Z,3.35
2023-03-23T22:34:05.797Z,3.83
2023-03-23T22:36:32.844Z,3.78
2023-03-23T22:39:00.314Z,3.47
2023-03-23T22:41:30.920Z,3.40
2023-03-23T22:43:57.417Z,3.08
2023-03-23T22:46:24.082Z,2.70
2023-03-23T22:48:50.532Z,2.95
2023-03-23T22:51:18.301Z,2.80
2023-03-23T22:53:45.857Z,2.78
2023-03-23T22:56:12.902Z,2.88
2023-03-23T22:58:39.246Z,2.58
2023-03-23T23:01:09.076Z,2.90
2023-03-23T23:03:35.485Z,2.70
2023-03-23T23:06:02.311Z,2.40
2023-03-23T23:08:29.949Z,2.50
2023-03-23T23:10:58.413Z,2.45
2023-03-23T23:13:25.477Z,2.50
2023-03-23T23:15:55.549Z,2.80
2023-03-23T23:18:22.953Z,2.30
2023-03-23T23:20:52.074Z,2.58
2023-03-23T23:23:18.613Z,2.42
2023-03-23T23:25:45.326Z,2.42
2023-03-23T23:28:12.486Z,2.90
2023-03-23T23:30:39.177Z,2.58
2023-03-23T23:33:06.099Z,2.65
2023-03-23T23:35:32.736Z,2.95
2023-03-23T23:37:59.035Z,3.15
2023-03-23T23:40:25.369Z,2.90
2023-03-23T23:42:52.312Z,2.83
2023-03-23T23:45:19.603Z,2.85
2023-03-23T23:50:14.112Z,2.78
2023-03-23T23:52:41.388Z,2.90
2023-03-23T23:55:08.980Z,3.08
2023-03-23T23:57:36.021Z,3.08
